Terminal Aerodrome Forecast
Issued by NWS

Current Version | Previous Version | Text Only | Print | Product List | Glossary On
Versions: 1 2 3 4 5 6 7 8 9 10 11 12 13 14 15 16
000
FTAK31 PAFA 020539
TAFAGA
TAF
PAGA 020539Z 0206/0306 03007KT P6SM VCSH SCT070 BKN090
     FM020900 VRB03KT P6SM SCT060 OVC090
     FM022100 05006KT P6SM -SHRA BKN060 BKN200=

USA.gov is the U.S. government's official web portal to all federal, state and local government web resources and services.